createdAt,value
2022-10-29T00:00:19.052Z,17.77
2022-10-29T00:01:19.125Z,17.75
2022-10-29T00:02:19.116Z,17.79
2022-10-29T00:03:19.204Z,17.77
2022-10-29T00:04:19.061Z,17.77
2022-10-29T00:05:19.105Z,17.72
2022-10-29T00:06:19.106Z,17.74
2022-10-29T00:07:19.115Z,17.75
2022-10-29T00:08:19.196Z,17.72
2022-10-29T00:09:19.066Z,17.72
2022-10-29T00:10:19.689Z,17.72
2022-10-29T00:14:25.158Z,17.70
2022-10-29T00:15:25.671Z,17.64
2022-10-29T00:16:25.281Z,17.75
2022-10-29T00:17:25.057Z,17.75
2022-10-29T00:18:25.078Z,17.72
2022-10-29T00:19:25.976Z,17.66
2022-10-29T00:20:25.900Z,17.71
2022-10-29T00:21:25.094Z,17.64
2022-10-29T00:22:25.503Z,17.72
2022-10-29T00:23:36.939Z,17.71
2022-10-29T00:24:25.366Z,17.64
2022-10-29T00:25:25.953Z,17.70
2022-10-29T00:26:25.960Z,17.72
2022-10-29T00:27:42.379Z,17.70
2022-10-29T00:28:25.988Z,17.74
2022-10-29T00:31:09.048Z,17.59
2022-10-29T00:32:21.806Z,17.59
2022-10-29T00:33:09.071Z,17.58
2022-10-29T00:34:08.946Z,17.55
2022-10-29T00:35:08.958Z,17.48
2022-10-29T00:36:09.688Z,17.56
2022-10-29T00:37:09.727Z,17.54
2022-10-29T00:38:09.767Z,17.55
2022-10-29T00:41:46.011Z,17.56
2022-10-29T00:45:00.393Z,17.55
2022-10-29T00:46:00.382Z,17.52
2022-10-29T00:47:00.369Z,17.52
2022-10-29T00:48:01.216Z,17.55
2022-10-29T00:49:01.213Z,17.41
2022-10-29T00:50:01.269Z,17.48
2022-10-29T00:51:01.305Z,17.49
2022-10-29T00:52:01.073Z,17.43
2022-10-29T00:53:01.268Z,17.40
2022-10-29T00:54:01.186Z,17.28
2022-10-29T00:55:01.063Z,17.44
2022-10-29T00:56:01.051Z,17.41
2022-10-29T00:57:01.219Z,17.40
2022-10-29T00:58:01.096Z,17.40
2022-10-29T00:59:01.233Z,17.40
2022-10-29T01:00:00.455Z,17.33
2022-10-29T01:01:01.299Z,17.34
2022-10-29T01:02:01.448Z,17.36
2022-10-29T01:03:01.085Z,17.34
2022-10-29T01:04:01.006Z,17.34
2022-10-29T01:05:00.363Z,17.23
2022-10-29T01:06:00.373Z,17.28
2022-10-29T01:07:00.354Z,17.28
2022-10-29T01:08:00.367Z,17.31
2022-10-29T01:09:00.351Z,17.38
2022-10-29T01:10:00.367Z,17.31
2022-10-29T01:11:00.352Z,17.28
2022-10-29T01:12:00.349Z,17.28
2022-10-29T01:13:00.384Z,17.33
2022-10-29T01:14:00.357Z,17.33
2022-10-29T01:15:00.364Z,17.31
2022-10-29T01:16:00.358Z,17.28
2022-10-29T01:17:00.360Z,17.25
2022-10-29T01:18:00.378Z,17.23
2022-10-29T01:19:00.477Z,17.23
2022-10-29T01:20:00.386Z,17.21
2022-10-29T01:21:00.385Z,17.22
2022-10-29T01:22:00.381Z,17.16
2022-10-29T01:23:00.393Z,17.19
2022-10-29T01:24:00.406Z,17.19
2022-10-29T01:25:00.388Z,17.16
2022-10-29T01:26:00.392Z,17.19
2022-10-29T01:27:00.396Z,17.18
2022-10-29T01:28:00.397Z,17.21
2022-10-29T01:29:00.391Z,17.23
2022-10-29T01:30:00.405Z,17.16
2022-10-29T01:31:00.389Z,17.21
2022-10-29T01:32:00.427Z,17.16
2022-10-29T01:33:00.386Z,17.19
2022-10-29T01:34:00.382Z,17.18
2022-10-29T01:35:00.406Z,17.21
2022-10-29T01:36:00.390Z,17.15
2022-10-29T01:37:00.392Z,17.12
2022-10-29T01:38:00.410Z,17.04
2022-10-29T01:39:00.401Z,17.07
2022-10-29T01:40:00.427Z,16.98
2022-10-29T01:41:00.411Z,17.06
2022-10-29T01:42:00.412Z,16.98
2022-10-29T01:43:07.999Z,17.04
2022-10-29T01:44:00.417Z,17.06
2022-10-29T01:45:00.396Z,16.96
2022-10-29T01:46:00.401Z,16.89
2022-10-29T01:47:00.416Z,16.91
2022-10-29T01:48:00.393Z,16.91
2022-10-29T01:49:00.408Z,16.86
2022-10-29T01:50:00.411Z,16.93
2022-10-29T01:51:00.424Z,16.97
2022-10-29T01:52:00.416Z,16.89
2022-10-29T01:53:00.422Z,16.89
2022-10-29T01:54:00.421Z,16.89
2022-10-29T01:55:00.417Z,16.83
2022-10-29T01:56:00.420Z,16.81
2022-10-29T01:57:00.413Z,16.82
2022-10-29T01:58:00.412Z,16.76
2022-10-29T01:59:00.452Z,16.81
2022-10-29T02:00:00.412Z,16.81
2022-10-29T02:01:00.591Z,16.78
2022-10-29T02:02:00.460Z,16.68
2022-10-29T02:03:00.914Z,16.76
2022-10-29T02:04:00.431Z,16.78
2022-10-29T02:05:00.431Z,16.79
2022-10-29T02:06:00.424Z,16.71
2022-10-29T02:07:00.442Z,16.79
2022-10-29T02:08:00.425Z,16.75
2022-10-29T02:09:00.441Z,16.66
2022-10-29T02:10:00.434Z,16.73
2022-10-29T02:11:00.444Z,16.71
2022-10-29T02:12:00.453Z,16.66
2022-10-29T02:13:00.439Z,16.70
2022-10-29T02:14:00.429Z,16.64
2022-10-29T02:15:00.447Z,16.71
2022-10-29T02:16:00.450Z,16.66
2022-10-29T02:17:00.469Z,16.68
2022-10-29T02:18:00.455Z,16.68
2022-10-29T02:19:00.442Z,16.70
2022-10-29T02:20:00.444Z,16.66
2022-10-29T02:21:00.471Z,16.71
2022-10-29T02:22:00.454Z,16.64
2022-10-29T02:23:00.452Z,16.66
2022-10-29T02:24:00.447Z,16.64
2022-10-29T02:25:00.521Z,16.61
2022-10-29T02:26:00.452Z,16.70
2022-10-29T02:27:00.469Z,16.70
2022-10-29T02:28:00.482Z,16.57
2022-10-29T02:29:00.459Z,16.67
2022-10-29T02:30:00.469Z,16.67
2022-10-29T02:31:00.469Z,16.63
2022-10-29T02:32:00.493Z,16.61
2022-10-29T02:33:00.534Z,16.58
2022-10-29T02:34:00.469Z,16.61
2022-10-29T02:35:00.464Z,16.61
2022-10-29T02:40:36.634Z,16.48
2022-10-29T02:41:36.625Z,16.48
2022-10-29T02:42:36.621Z,16.42
2022-10-29T02:43:36.642Z,16.50
2022-10-29T02:44:36.641Z,16.49
2022-10-29T02:45:36.622Z,16.46
2022-10-29T02:48:16.390Z,16.46
2022-10-29T02:49:08.208Z,16.42
2022-10-29T02:50:08.220Z,16.52
2022-10-29T02:51:08.214Z,16.43
2022-10-29T02:52:08.226Z,16.45
2022-10-29T02:53:08.242Z,16.45
2022-10-29T02:54:08.229Z,16.45
2022-10-29T02:55:08.213Z,16.46
2022-10-29T02:56:08.230Z,16.45
2022-10-29T02:57:08.238Z,16.46
2022-10-29T02:58:08.262Z,16.50
2022-10-29T02:59:10.858Z,16.42
2022-10-29T03:00:08.251Z,16.46
2022-10-29T03:01:08.236Z,16.45
2022-10-29T03:02:08.428Z,16.46
2022-10-29T03:03:08.257Z,16.45
2022-10-29T03:04:08.243Z,16.46
2022-10-29T03:05:08.227Z,16.52
2022-10-29T03:06:08.242Z,16.49
2022-10-29T03:07:08.273Z,16.42
2022-10-29T03:08:08.240Z,16.42
2022-10-29T03:09:08.256Z,16.43
2022-10-29T03:10:08.233Z,16.52
2022-10-29T03:11:08.245Z,16.48
2022-10-29T03:12:08.268Z,16.58
2022-10-29T03:13:08.249Z,16.50
2022-10-29T03:14:08.249Z,16.58
2022-10-29T03:15:08.266Z,16.57
2022-10-29T03:16:08.257Z,16.53
2022-10-29T03:17:08.256Z,16.56
2022-10-29T03:18:08.246Z,16.57
2022-10-29T03:19:08.258Z,16.49
2022-10-29T03:20:08.267Z,16.60
2022-10-29T03:21:08.251Z,16.53
2022-10-29T03:22:08.255Z,16.48
2022-10-29T03:23:08.259Z,16.50
2022-10-29T03:24:08.256Z,16.56
2022-10-29T03:25:08.288Z,16.60
2022-10-29T03:26:08.248Z,16.53
2022-10-29T03:27:08.266Z,16.45
2022-10-29T03:28:08.265Z,16.48
2022-10-29T03:29:08.271Z,16.42
2022-10-29T03:30:08.269Z,16.56
2022-10-29T03:31:08.284Z,16.52
2022-10-29T03:32:08.270Z,16.46
2022-10-29T03:33:08.260Z,16.42
2022-10-29T03:34:08.275Z,16.43
2022-10-29T03:35:08.271Z,16.43
2022-10-29T03:36:08.393Z,16.41
2022-10-29T03:37:08.295Z,16.45
2022-10-29T03:38:08.275Z,16.34
2022-10-29T03:39:08.297Z,16.42
2022-10-29T03:40:08.273Z,16.35
2022-10-29T03:41:08.298Z,16.28
2022-10-29T03:42:08.298Z,16.31
2022-10-29T03:43:08.268Z,16.31
2022-10-29T03:44:08.276Z,16.30
2022-10-29T03:45:08.272Z,16.31
2022-10-29T03:46:08.283Z,16.24
2022-10-29T03:47:08.290Z,16.30
2022-10-29T03:48:08.306Z,16.39
2022-10-29T03:49:08.288Z,16.34
2022-10-29T03:50:08.278Z,16.30
2022-10-29T03:51:08.298Z,16.30
2022-10-29T03:52:08.293Z,16.34
2022-10-29T03:53:08.296Z,16.31
2022-10-29T03:54:08.308Z,16.34
2022-10-29T03:55:08.288Z,16.39
2022-10-29T03:56:08.283Z,16.34
2022-10-29T03:57:08.312Z,16.34
2022-10-29T03:58:08.300Z,16.34
2022-10-29T03:59:08.299Z,16.23
2022-10-29T04:00:08.302Z,16.33
2022-10-29T04:01:08.289Z,16.35
2022-10-29T04:02:08.433Z,16.34
2022-10-29T04:03:08.359Z,16.27
2022-10-29T04:04:08.322Z,16.28
2022-10-29T04:05:08.308Z,16.38
2022-10-29T04:06:08.300Z,16.34
2022-10-29T04:07:08.301Z,16.25
2022-10-29T04:08:08.299Z,16.30
2022-10-29T04:09:08.312Z,16.28
2022-10-29T04:10:08.313Z,16.35
2022-10-29T04:11:08.318Z,16.25
2022-10-29T04:12:08.301Z,16.28
2022-10-29T04:13:08.321Z,16.31
2022-10-29T04:14:08.313Z,16.28
2022-10-29T04:15:08.319Z,16.28
2022-10-29T04:16:08.354Z,16.24
2022-10-29T04:17:08.350Z,16.27
2022-10-29T04:18:08.323Z,16.20
2022-10-29T04:19:08.316Z,16.24
2022-10-29T04:20:19.083Z,16.25
2022-10-29T04:24:48.651Z,16.20
2022-10-29T04:28:17.944Z,16.21
2022-10-29T04:29:08.342Z,16.28
2022-10-29T04:30:08.367Z,16.21
2022-10-29T04:31:08.340Z,16.30
2022-10-29T04:32:08.344Z,16.31
2022-10-29T04:33:08.338Z,16.35
2022-10-29T04:34:08.324Z,16.24
2022-10-29T04:35:08.344Z,16.25
2022-10-29T04:36:08.343Z,16.24
2022-10-29T04:37:08.343Z,16.27
2022-10-29T04:38:08.350Z,16.35
2022-10-29T04:39:08.330Z,16.35
2022-10-29T04:40:08.334Z,16.30
2022-10-29T04:41:08.342Z,16.34
2022-10-29T04:42:08.345Z,16.30
2022-10-29T04:43:08.383Z,16.31
2022-10-29T04:44:08.350Z,16.28
2022-10-29T04:45:08.356Z,16.31
2022-10-29T04:46:08.341Z,16.24
2022-10-29T04:47:08.339Z,16.25
2022-10-29T04:48:08.342Z,16.20
2022-10-29T04:49:08.415Z,16.24
2022-10-29T04:50:08.353Z,16.23
2022-10-29T04:51:08.344Z,16.12
2022-10-29T04:52:08.351Z,16.23
2022-10-29T04:53:08.356Z,16.23
2022-10-29T04:54:08.342Z,16.23
2022-10-29T04:55:08.375Z,16.20
2022-10-29T04:56:08.365Z,16.20
2022-10-29T04:57:08.348Z,16.15
2022-10-29T04:58:08.352Z,16.12
2022-10-29T04:59:08.350Z,16.09
2022-10-29T05:00:08.370Z,16.08
2022-10-29T05:01:08.611Z,16.09
2022-10-29T05:02:08.353Z,16.17
2022-10-29T05:03:08.353Z,16.08
2022-10-29T05:04:08.357Z,16.08
2022-10-29T05:05:08.367Z,16.08
2022-10-29T05:06:08.368Z,16.14
2022-10-29T05:07:08.398Z,16.20
2022-10-29T05:08:08.376Z,16.24
2022-10-29T05:09:08.374Z,16.20
2022-10-29T05:10:08.370Z,16.17
2022-10-29T05:11:08.381Z,16.15
2022-10-29T05:12:08.370Z,16.21
2022-10-29T05:13:08.377Z,16.20
2022-10-29T05:14:08.362Z,16.24
2022-10-29T05:15:08.367Z,16.17
2022-10-29T05:16:08.369Z,16.23
2022-10-29T05:17:08.390Z,16.15
2022-10-29T05:18:08.383Z,16.21
2022-10-29T05:19:08.378Z,16.20
2022-10-29T05:20:08.383Z,16.15
2022-10-29T05:21:08.376Z,16.17
2022-10-29T05:22:08.383Z,16.17
2022-10-29T05:23:08.376Z,16.23
2022-10-29T05:24:08.397Z,16.14
2022-10-29T05:25:08.380Z,16.15
2022-10-29T05:26:08.394Z,16.15
2022-10-29T05:27:08.378Z,16.21
2022-10-29T05:28:08.379Z,16.12
2022-10-29T05:29:08.425Z,16.20
2022-10-29T05:30:08.382Z,16.21
2022-10-29T05:31:08.379Z,16.21
2022-10-29T05:32:08.398Z,16.17
2022-10-29T05:33:08.383Z,16.09
2022-10-29T05:34:08.392Z,16.20
2022-10-29T05:35:08.413Z,16.17
2022-10-29T05:36:08.391Z,16.21
2022-10-29T05:37:08.408Z,16.20
2022-10-29T05:38:08.398Z,16.17
2022-10-29T05:39:08.402Z,16.15
2022-10-29T05:40:08.420Z,16.14
2022-10-29T05:41:08.403Z,16.12
2022-10-29T05:42:08.403Z,16.08
2022-10-29T05:43:08.418Z,16.09
2022-10-29T05:44:08.421Z,16.12
2022-10-29T05:45:08.394Z,16.01
2022-10-29T05:46:08.421Z,16.08
2022-10-29T05:47:08.403Z,16.07
2022-10-29T05:48:08.435Z,16.05
2022-10-29T05:49:08.411Z,16.12
2022-10-29T05:50:08.417Z,16.05
2022-10-29T05:51:08.422Z,16.01
2022-10-29T05:52:08.404Z,15.97
2022-10-29T05:53:08.428Z,15.96
2022-10-29T05:54:08.413Z,16.07
2022-10-29T05:55:08.406Z,16.05
2022-10-29T05:56:08.441Z,15.94
2022-10-29T05:57:08.418Z,16.00
2022-10-29T05:58:08.416Z,15.97
2022-10-29T05:59:08.420Z,15.97
2022-10-29T06:00:08.427Z,16.00
2022-10-29T06:01:08.416Z,16.00
2022-10-29T06:02:08.566Z,15.97
2022-10-29T06:03:08.486Z,15.96
2022-10-29T06:04:08.425Z,15.97
2022-10-29T06:05:08.434Z,15.96
2022-10-29T06:06:08.515Z,15.92
2022-10-29T06:07:08.429Z,15.87
2022-10-29T06:08:08.430Z,15.94
2022-10-29T06:09:08.429Z,15.94
2022-10-29T06:10:08.419Z,15.89
2022-10-29T06:11:08.426Z,15.96
2022-10-29T06:12:08.441Z,15.93
2022-10-29T06:13:08.426Z,15.97
2022-10-29T06:14:08.427Z,15.94
2022-10-29T06:15:08.429Z,15.94
2022-10-29T06:16:08.429Z,16.01
2022-10-29T06:17:08.427Z,15.97
2022-10-29T06:18:08.449Z,15.97
2022-10-29T06:19:08.436Z,15.96
2022-10-29T06:20:08.443Z,15.94
2022-10-29T06:21:08.431Z,16.02
2022-10-29T06:22:08.450Z,16.00
2022-10-29T06:23:08.432Z,15.97
2022-10-29T06:24:08.451Z,15.92
2022-10-29T06:25:08.443Z,16.01
2022-10-29T06:26:08.439Z,15.97
2022-10-29T06:27:08.435Z,16.09
2022-10-29T06:28:08.442Z,16.11
2022-10-29T06:29:08.462Z,16.09
2022-10-29T06:30:08.448Z,16.09
2022-10-29T06:31:08.440Z,16.12
2022-10-29T06:32:08.450Z,16.09
2022-10-29T06:33:08.446Z,16.20
2022-10-29T06:34:08.454Z,16.15
2022-10-29T06:35:08.451Z,16.17
2022-10-29T06:36:08.447Z,16.21
2022-10-29T06:37:08.451Z,16.27
2022-10-29T06:38:11.989Z,16.23
2022-10-29T06:39:08.474Z,16.27
2022-10-29T06:40:08.456Z,16.38
2022-10-29T06:41:08.457Z,16.45
2022-10-29T06:42:08.449Z,16.39
2022-10-29T06:43:08.458Z,16.41
2022-10-29T06:44:08.462Z,16.43
2022-10-29T06:45:08.463Z,16.46
2022-10-29T06:46:08.451Z,16.50
2022-10-29T06:47:08.458Z,16.48
2022-10-29T06:48:08.471Z,16.53
2022-10-29T06:49:08.473Z,16.57
2022-10-29T06:50:08.464Z,16.63
2022-10-29T06:51:08.527Z,16.67
2022-10-29T06:52:08.487Z,16.64
2022-10-29T06:53:08.473Z,16.76
2022-10-29T06:54:08.466Z,16.70
2022-10-29T06:55:08.466Z,16.83
2022-10-29T06:56:08.468Z,16.89
2022-10-29T06:57:08.467Z,16.88
2022-10-29T06:58:08.493Z,16.94
2022-10-29T06:59:08.495Z,16.86
2022-10-29T07:00:08.894Z,17.01
2022-10-29T07:01:08.478Z,17.01
2022-10-29T07:02:08.519Z,17.04
2022-10-29T07:03:08.493Z,17.18
2022-10-29T07:04:08.530Z,17.21
2022-10-29T07:05:08.480Z,17.16
2022-10-29T07:06:08.485Z,17.22
2022-10-29T07:07:08.469Z,17.30
2022-10-29T07:08:08.484Z,17.31
2022-10-29T07:09:08.492Z,17.28
2022-10-29T07:10:08.477Z,17.31
2022-10-29T07:11:08.492Z,17.31
2022-10-29T07:12:08.481Z,17.40
2022-10-29T07:13:08.489Z,17.49
2022-10-29T07:14:08.498Z,17.51
2022-10-29T07:15:08.522Z,17.54
2022-10-29T07:16:08.506Z,17.55
2022-10-29T07:17:08.508Z,17.59
2022-10-29T07:18:08.490Z,17.71
2022-10-29T07:19:08.485Z,17.66
2022-10-29T07:20:08.502Z,17.71
2022-10-29T07:21:08.495Z,17.70
2022-10-29T07:22:08.506Z,17.81
2022-10-29T07:23:08.526Z,17.82
2022-10-29T07:24:08.510Z,17.92
2022-10-29T07:25:08.499Z,17.97
2022-10-29T07:26:08.509Z,18.02
2022-10-29T07:27:08.601Z,18.15
2022-10-29T07:28:08.548Z,18.10
2022-10-29T07:29:08.533Z,18.21
2022-10-29T07:30:08.520Z,18.11
2022-10-29T07:31:08.520Z,18.30
2022-10-29T07:32:08.512Z,18.33
2022-10-29T07:33:08.528Z,18.27
2022-10-29T07:34:08.522Z,18.25
2022-10-29T07:35:08.514Z,18.33
2022-10-29T07:36:08.520Z,18.45
2022-10-29T07:37:08.519Z,18.50
2022-10-29T07:38:10.805Z,18.51
2022-10-29T07:39:08.543Z,18.50
2022-10-29T07:40:08.539Z,18.51
2022-10-29T07:41:08.543Z,18.58
2022-10-29T07:42:08.528Z,18.55
2022-10-29T07:43:08.531Z,18.62
2022-10-29T07:44:08.574Z,18.60
2022-10-29T07:45:08.531Z,18.55
2022-10-29T07:46:08.549Z,18.65
2022-10-29T07:47:08.540Z,18.72
2022-10-29T07:48:08.538Z,18.69
2022-10-29T07:49:08.581Z,18.72
2022-10-29T07:50:08.572Z,18.80
2022-10-29T07:51:08.549Z,18.76
2022-10-29T07:52:08.548Z,18.82
2022-10-29T07:53:08.559Z,18.80
2022-10-29T07:54:13.646Z,18.80
2022-10-29T07:55:08.578Z,18.82
2022-10-29T07:56:08.571Z,18.81
2022-10-29T07:57:08.570Z,18.87
2022-10-29T07:58:08.563Z,18.88
2022-10-29T07:59:08.571Z,18.99
2022-10-29T08:00:08.566Z,19.02
2022-10-29T08:01:08.659Z,19.25
2022-10-29T08:02:08.597Z,19.23
2022-10-29T08:03:08.583Z,19.32
2022-10-29T08:04:08.591Z,19.29
2022-10-29T08:05:08.591Z,19.46
2022-10-29T08:06:08.574Z,19.48
2022-10-29T08:07:08.688Z,19.68
2022-10-29T08:08:08.606Z,19.69
2022-10-29T08:09:08.602Z,19.68
2022-10-29T08:10:08.595Z,19.77
2022-10-29T08:11:08.601Z,19.78
2022-10-29T08:12:08.627Z,19.84
2022-10-29T08:13:08.599Z,19.99
2022-10-29T08:14:08.598Z,19.98
2022-10-29T08:15:08.598Z,20.01
2022-10-29T08:16:08.631Z,19.94
2022-10-29T08:17:08.637Z,19.80
2022-10-29T08:18:08.627Z,19.69
2022-10-29T08:19:08.631Z,19.63
2022-10-29T08:20:08.626Z,19.62
2022-10-29T08:21:08.628Z,19.59
2022-10-29T08:22:08.639Z,19.50
2022-10-29T08:23:08.651Z,19.43
2022-10-29T08:24:08.649Z,19.43
2022-10-29T08:25:08.627Z,19.48
2022-10-29T08:26:08.645Z,19.50
2022-10-29T08:27:08.648Z,19.59
2022-10-29T08:28:08.662Z,19.69
2022-10-29T08:29:08.677Z,19.77
2022-10-29T08:30:08.649Z,19.80
2022-10-29T08:31:08.660Z,19.87
2022-10-29T08:32:08.662Z,19.99
2022-10-29T08:33:08.666Z,20.03
2022-10-29T08:34:11.206Z,20.11
2022-10-29T08:35:08.692Z,20.28
2022-10-29T08:36:08.677Z,20.26
2022-10-29T08:37:08.663Z,20.21
2022-10-29T08:38:08.680Z,20.33
2022-10-29T08:39:08.674Z,20.41
2022-10-29T08:40:08.680Z,20.50
2022-10-29T08:41:08.721Z,20.47
2022-10-29T08:42:08.674Z,20.47
2022-10-29T08:43:08.685Z,20.48
2022-10-29T08:44:08.686Z,20.33
2022-10-29T08:45:08.698Z,20.16
2022-10-29T08:46:08.708Z,20.13
2022-10-29T08:47:08.736Z,19.98
2022-10-29T08:48:08.725Z,20.06
2022-10-29T08:49:08.723Z,20.01
2022-10-29T08:50:08.712Z,20.01
2022-10-29T08:51:08.721Z,20.11
2022-10-29T08:52:08.751Z,20.23
2022-10-29T08:53:22.786Z,20.20
2022-10-29T08:54:29.721Z,20.20
2022-10-29T08:55:08.727Z,20.14
2022-10-29T08:56:08.739Z,20.18
2022-10-29T08:57:08.767Z,20.20
2022-10-29T08:58:08.757Z,20.21
2022-10-29T08:59:08.760Z,20.21
2022-10-29T09:01:08.796Z,20.08
2022-10-29T09:02:08.794Z,20.11
2022-10-29T09:03:08.778Z,20.08
2022-10-29T09:04:08.768Z,20.14
2022-10-29T09:05:08.797Z,20.13
2022-10-29T09:06:08.772Z,20.02
2022-10-29T09:07:08.774Z,20.16
2022-10-29T09:08:08.790Z,20.20
2022-10-29T09:09:08.794Z,20.10
2022-10-29T09:10:08.785Z,20.17
2022-10-29T09:11:08.795Z,20.28
2022-10-29T09:12:08.788Z,20.28
2022-10-29T09:13:08.799Z,20.23
2022-10-29T09:14:08.807Z,20.26
2022-10-29T09:15:08.821Z,20.35
2022-10-29T09:16:08.823Z,20.35
2022-10-29T09:17:11.517Z,20.39
2022-10-29T09:18:08.820Z,20.41
2022-10-29T09:19:08.808Z,20.43
2022-10-29T09:20:08.829Z,20.50
2022-10-29T09:21:08.830Z,20.41
2022-10-29T09:22:08.817Z,20.48
2022-10-29T09:23:08.841Z,20.42
2022-10-29T09:24:08.871Z,20.50
2022-10-29T09:25:08.847Z,20.58
2022-10-29T09:26:08.852Z,20.58
2022-10-29T09:27:10.602Z,20.61
2022-10-29T09:28:08.853Z,20.58
2022-10-29T09:29:08.845Z,20.58
2022-10-29T09:30:08.860Z,20.58
2022-10-29T09:31:08.906Z,20.57
2022-10-29T09:32:08.860Z,20.61
2022-10-29T09:33:08.872Z,20.57
2022-10-29T09:34:08.888Z,20.59
2022-10-29T09:35:08.882Z,20.57
2022-10-29T09:36:08.884Z,20.58
2022-10-29T09:37:08.887Z,20.52
2022-10-29T09:38:08.904Z,20.59
2022-10-29T09:39:08.882Z,20.51
2022-10-29T09:40:08.899Z,20.48
2022-10-29T09:41:08.922Z,20.59
2022-10-29T09:42:08.903Z,20.61
2022-10-29T09:43:08.904Z,20.55
2022-10-29T09:44:08.926Z,20.55
2022-10-29T09:45:08.921Z,20.54
2022-10-29T09:46:08.938Z,20.52
2022-10-29T09:47:10.010Z,20.43
2022-10-29T09:48:08.929Z,20.35
2022-10-29T09:49:08.950Z,20.36
2022-10-29T09:50:09.214Z,20.24
2022-10-29T09:51:08.933Z,20.35
2022-10-29T09:52:08.933Z,20.38
2022-10-29T09:53:08.933Z,20.23
2022-10-29T09:54:08.963Z,20.20
2022-10-29T09:55:08.958Z,20.23
2022-10-29T09:56:08.959Z,20.33
2022-10-29T09:57:08.957Z,20.24
2022-10-29T09:58:08.972Z,20.23
2022-10-29T09:59:08.962Z,20.16
2022-10-29T10:00:08.992Z,20.11
2022-10-29T10:01:08.977Z,20.06
2022-10-29T10:02:09.140Z,20.02
2022-10-29T10:03:09.095Z,20.10
2022-10-29T10:04:08.978Z,20.10
2022-10-29T10:05:08.993Z,20.13
2022-10-29T10:06:08.999Z,20.08
2022-10-29T10:07:08.996Z,20.08
2022-10-29T10:08:09.011Z,20.10
2022-10-29T10:09:08.994Z,20.17
2022-10-29T10:10:09.037Z,20.10
2022-10-29T10:11:09.026Z,20.16
2022-10-29T10:12:09.004Z,20.13
2022-10-29T10:13:14.172Z,20.13
2022-10-29T10:14:09.024Z,20.13
2022-10-29T10:15:09.027Z,20.21
2022-10-29T10:16:09.036Z,20.29
2022-10-29T10:17:09.045Z,20.20
2022-10-29T10:18:09.026Z,20.39
2022-10-29T10:19:09.056Z,20.42
2022-10-29T10:20:09.031Z,20.47
2022-10-29T10:21:09.060Z,20.52
2022-10-29T10:22:10.280Z,20.55
2022-10-29T10:23:09.038Z,20.70
2022-10-29T10:24:09.056Z,20.69
2022-10-29T10:25:09.071Z,20.88
2022-10-29T10:26:09.057Z,20.94
2022-10-29T10:27:09.067Z,20.94
2022-10-29T10:28:09.092Z,21.16
2022-10-29T10:29:09.084Z,21.31
2022-10-29T10:30:09.072Z,21.37
2022-10-29T10:31:09.094Z,21.56
2022-10-29T10:32:09.069Z,21.61
2022-10-29T10:33:09.132Z,21.62
2022-10-29T10:34:09.106Z,21.69
2022-10-29T10:35:09.098Z,21.72
2022-10-29T10:36:09.089Z,21.69
2022-10-29T10:37:09.094Z,21.69
2022-10-29T10:38:09.112Z,21.71
2022-10-29T10:39:09.103Z,21.79
2022-10-29T10:40:09.123Z,21.79
2022-10-29T10:41:09.119Z,21.80
2022-10-29T10:42:09.122Z,21.82
2022-10-29T10:43:09.194Z,21.82
2022-10-29T10:44:09.129Z,21.82
2022-10-29T10:45:09.145Z,21.82
2022-10-29T10:46:09.130Z,21.64
2022-10-29T10:47:09.145Z,21.67
2022-10-29T10:48:09.300Z,21.67
2022-10-29T10:49:09.151Z,21.71
2022-10-29T10:50:09.172Z,21.79
2022-10-29T10:51:09.171Z,21.91
2022-10-29T10:52:09.167Z,21.96
2022-10-29T10:53:09.164Z,22.09
2022-10-29T10:54:09.181Z,22.27
2022-10-29T10:55:09.195Z,22.35
2022-10-29T10:56:09.198Z,22.39
2022-10-29T10:57:09.200Z,22.51
2022-10-29T10:58:09.183Z,22.62
2022-10-29T10:59:09.187Z,22.79
2022-10-29T11:00:09.206Z,22.90
2022-10-29T11:01:09.273Z,23.07
2022-10-29T11:02:09.263Z,23.04
2022-10-29T11:03:09.257Z,23.23
2022-10-29T11:04:09.221Z,23.33
2022-10-29T11:05:09.218Z,23.38
2022-10-29T11:06:09.226Z,23.42
2022-10-29T11:07:09.250Z,23.47
2022-10-29T11:08:09.249Z,23.57
2022-10-29T11:09:09.237Z,23.65
2022-10-29T11:10:09.243Z,23.69
2022-10-29T11:11:09.257Z,23.66
2022-10-29T11:12:09.273Z,23.66
2022-10-29T11:13:09.297Z,23.69
2022-10-29T11:14:09.273Z,23.61
2022-10-29T11:15:09.280Z,23.76
2022-10-29T11:16:09.288Z,23.79
2022-10-29T11:17:09.308Z,23.55
2022-10-29T11:18:09.326Z,23.57
2022-10-29T11:19:09.294Z,23.50
2022-10-29T11:20:09.324Z,23.55
2022-10-29T11:21:09.306Z,23.61
2022-10-29T11:22:09.331Z,23.42
2022-10-29T11:23:09.337Z,23.32
2022-10-29T11:24:09.327Z,23.32
2022-10-29T11:25:09.338Z,23.07
2022-10-29T11:26:09.339Z,23.04
2022-10-29T11:27:09.336Z,22.94
2022-10-29T11:28:09.362Z,22.91
2022-10-29T11:29:09.367Z,22.95
2022-10-29T11:30:09.360Z,23.10
2022-10-29T11:31:09.369Z,22.92
2022-10-29T11:32:09.368Z,22.95
2022-10-29T11:33:09.427Z,22.98
2022-10-29T11:34:09.415Z,23.00
2022-10-29T11:35:09.408Z,23.16
2022-10-29T11:36:09.398Z,23.12
2022-10-29T11:37:09.415Z,23.25
2022-10-29T11:38:09.410Z,23.32
2022-10-29T11:39:09.402Z,23.32
2022-10-29T11:40:09.430Z,23.32
2022-10-29T11:41:09.452Z,23.39
2022-10-29T11:42:09.429Z,23.39
2022-10-29T11:43:09.446Z,23.40
2022-10-29T11:44:09.444Z,23.38
2022-10-29T11:45:09.441Z,23.43
2022-10-29T11:46:09.449Z,23.35
2022-10-29T11:47:09.466Z,23.16
2022-10-29T11:48:09.513Z,23.27
2022-10-29T11:49:09.466Z,23.05
2022-10-29T11:50:09.459Z,23.19
2022-10-29T11:51:09.492Z,23.27
2022-10-29T11:52:09.475Z,23.40
2022-10-29T11:53:09.501Z,23.50
2022-10-29T11:54:09.495Z,23.58
2022-10-29T11:55:09.506Z,23.65
2022-10-29T11:56:09.486Z,23.58
2022-10-29T11:57:09.493Z,23.57
2022-10-29T11:58:09.507Z,23.61
2022-10-29T11:59:09.518Z,23.63
2022-10-29T12:00:09.527Z,23.60
2022-10-29T12:01:09.529Z,23.55
2022-10-29T12:02:09.530Z,23.39
2022-10-29T12:03:09.546Z,23.36
2022-10-29T12:05:09.545Z,23.31
2022-10-29T12:06:09.547Z,23.31
2022-10-29T12:07:09.557Z,23.31
2022-10-29T12:08:09.562Z,23.31
2022-10-29T12:09:09.573Z,23.31
2022-10-29T12:10:09.595Z,23.28
2022-10-29T12:11:09.573Z,23.10
2022-10-29T12:12:09.586Z,23.07
2022-10-29T12:13:09.583Z,23.16
2022-10-29T12:14:09.592Z,23.16
2022-10-29T12:15:09.597Z,23.16
2022-10-29T12:16:09.609Z,23.15
2022-10-29T12:17:09.615Z,23.12
2022-10-29T12:18:09.654Z,23.07
2022-10-29T12:19:09.613Z,23.17
2022-10-29T12:20:09.631Z,23.17
2022-10-29T12:21:09.656Z,23.20
2022-10-29T12:22:09.617Z,23.20
2022-10-29T12:23:14.470Z,23.27
2022-10-29T12:24:09.635Z,23.22
2022-10-29T12:25:09.628Z,23.17
2022-10-29T12:26:09.655Z,23.19
2022-10-29T12:27:09.637Z,23.27
2022-10-29T12:28:09.648Z,23.23
2022-10-29T12:29:09.651Z,23.25
2022-10-29T12:30:09.659Z,23.27
2022-10-29T12:31:09.682Z,23.25
2022-10-29T12:32:09.687Z,23.25
2022-10-29T12:33:09.670Z,23.22
2022-10-29T12:34:09.691Z,23.15
2022-10-29T12:35:09.683Z,23.10
2022-10-29T12:36:09.719Z,23.09
2022-10-29T12:37:09.685Z,23.10
2022-10-29T12:38:09.706Z,23.13
2022-10-29T12:39:09.703Z,23.12
2022-10-29T12:40:09.822Z,23.09
2022-10-29T12:41:09.707Z,23.09
2022-10-29T12:42:09.721Z,23.05
2022-10-29T12:43:09.736Z,23.04
2022-10-29T12:44:09.749Z,22.92
2022-10-29T12:45:09.731Z,22.98
2022-10-29T12:46:25.039Z,22.95
2022-10-29T12:47:09.727Z,22.94
2022-10-29T12:48:09.761Z,22.94
2022-10-29T12:49:09.758Z,23.05
2022-10-29T12:50:09.816Z,23.05
2022-10-29T12:51:09.752Z,23.12
2022-10-29T12:52:09.769Z,23.10
2022-10-29T12:53:09.765Z,23.09
2022-10-29T12:54:09.796Z,23.10
2022-10-29T12:55:09.763Z,23.04
2022-10-29T12:56:09.783Z,23.09
2022-10-29T12:57:09.794Z,23.09
2022-10-29T12:58:09.789Z,23.16
2022-10-29T12:59:09.807Z,23.09
2022-10-29T13:00:09.863Z,23.13
2022-10-29T13:01:09.880Z,23.07
2022-10-29T13:02:12.206Z,23.17
2022-10-29T13:03:09.907Z,23.04
2022-10-29T13:04:09.827Z,23.10
2022-10-29T13:05:09.993Z,23.09
2022-10-29T13:06:09.826Z,23.05
2022-10-29T13:07:09.943Z,23.05
2022-10-29T13:08:09.841Z,23.04
2022-10-29T13:09:24.746Z,23.15
2022-10-29T13:10:10.801Z,23.16
2022-10-29T13:11:15.566Z,23.05
2022-10-29T13:12:10.598Z,23.07
2022-10-29T13:13:09.859Z,22.98
2022-10-29T13:14:09.957Z,23.01
2022-10-29T13:15:10.550Z,22.92
2022-10-29T13:16:09.893Z,22.83